sensor_id;sensor_type;location;lat;lon;timestamp;P1;durP1;ratioP1;P2;durP2;ratioP2
50205;SDS011;36098;48.390;10.856;2024-03-06T00:01:50;3.72;;;1.80;;
50205;SDS011;36098;48.390;10.856;2024-03-06T00:04:15;3.80;;;1.90;;
50205;SDS011;36098;48.390;10.856;2024-03-06T00:06:41;5.55;;;2.15;;
50205;SDS011;36098;48.390;10.856;2024-03-06T00:09:07;3.05;;;1.60;;
50205;SDS011;36098;48.390;10.856;2024-03-06T00:11:33;4.93;;;1.60;;
50205;SDS011;36098;48.390;10.856;2024-03-06T00:14:00;2.88;;;1.67;;
50205;SDS011;36098;48.390;10.856;2024-03-06T00:16:26;4.32;;;2.13;;
50205;SDS011;36098;48.390;10.856;2024-03-06T00:18:52;3.53;;;1.80;;
50205;SDS011;36098;48.390;10.856;2024-03-06T00:21:17;4.88;;;1.90;;
50205;SDS011;36098;48.390;10.856;2024-03-06T00:23:43;2.25;;;1.27;;
50205;SDS011;36098;48.390;10.856;2024-03-06T00:26:08;2.78;;;1.40;;
50205;SDS011;36098;48.390;10.856;2024-03-06T00:28:35;4.55;;;1.45;;
50205;SDS011;36098;48.390;10.856;2024-03-06T00:31:00;4.88;;;1.73;;
50205;SDS011;36098;48.390;10.856;2024-03-06T00:33:25;4.15;;;1.55;;
50205;SDS011;36098;48.390;10.856;2024-03-06T00:35:50;3.30;;;1.55;;
50205;SDS011;36098;48.390;10.856;2024-03-06T00:38:16;3.72;;;1.58;;
50205;SDS011;36098;48.390;10.856;2024-03-06T00:40:41;6.53;;;1.60;;
50205;SDS011;36098;48.390;10.856;2024-03-06T00:43:07;3.83;;;1.95;;
50205;SDS011;36098;48.390;10.856;2024-03-06T00:45:32;2.85;;;1.75;;
50205;SDS011;36098;48.390;10.856;2024-03-06T00:47:57;4.22;;;1.50;;
50205;SDS011;36098;48.390;10.856;2024-03-06T00:50:23;5.90;;;1.75;;
50205;SDS011;36098;48.390;10.856;2024-03-06T00:52:48;2.50;;;1.42;;
50205;SDS011;36098;48.390;10.856;2024-03-06T00:55:14;2.95;;;1.40;;
50205;SDS011;36098;48.390;10.856;2024-03-06T00:57:40;2.45;;;1.60;;
50205;SDS011;36098;48.390;10.856;2024-03-06T01:00:05;2.30;;;1.50;;
50205;SDS011;36098;48.390;10.856;2024-03-06T01:02:35;5.68;;;1.65;;
50205;SDS011;36098;48.390;10.856;2024-03-06T01:05:04;2.03;;;1.50;;
50205;SDS011;36098;48.390;10.856;2024-03-06T01:07:30;3.95;;;1.58;;
50205;SDS011;36098;48.390;10.856;2024-03-06T01:09:56;2.55;;;1.35;;
50205;SDS011;36098;48.390;10.856;2024-03-06T01:12:22;3.25;;;1.63;;
50205;SDS011;36098;48.390;10.856;2024-03-06T01:14:48;2.60;;;1.50;;
50205;SDS011;36098;48.390;10.856;2024-03-06T01:17:13;2.70;;;1.52;;
50205;SDS011;36098;48.390;10.856;2024-03-06T01:19:39;4.05;;;1.30;;
50205;SDS011;36098;48.390;10.856;2024-03-06T01:22:04;3.20;;;1.40;;
50205;SDS011;36098;48.390;10.856;2024-03-06T01:24:29;4.10;;;1.45;;
50205;SDS011;36098;48.390;10.856;2024-03-06T01:26:55;2.33;;;1.50;;
50205;SDS011;36098;48.390;10.856;2024-03-06T01:29:20;2.00;;;1.40;;
50205;SDS011;36098;48.390;10.856;2024-03-06T01:31:45;2.30;;;1.20;;
50205;SDS011;36098;48.390;10.856;2024-03-06T01:34:11;3.50;;;1.17;;
50205;SDS011;36098;48.390;10.856;2024-03-06T01:36:37;1.77;;;1.30;;
50205;SDS011;36098;48.390;10.856;2024-03-06T01:39:02;2.95;;;1.48;;
50205;SDS011;36098;48.390;10.856;2024-03-06T01:41:28;2.65;;;1.30;;
50205;SDS011;36098;48.390;10.856;2024-03-06T01:43:53;1.27;;;1.10;;
50205;SDS011;36098;48.390;10.856;2024-03-06T01:46:18;2.38;;;1.48;;
50205;SDS011;36098;48.390;10.856;2024-03-06T01:48:44;2.60;;;1.77;;
50205;SDS011;36098;48.390;10.856;2024-03-06T01:51:09;4.00;;;1.50;;
50205;SDS011;36098;48.390;10.856;2024-03-06T01:53:35;1.65;;;1.33;;
50205;SDS011;36098;48.390;10.856;2024-03-06T01:56:03;1.95;;;1.23;;
50205;SDS011;36098;48.390;10.856;2024-03-06T01:58:29;4.22;;;1.30;;
50205;SDS011;36098;48.390;10.856;2024-03-06T02:00:55;1.98;;;1.25;;
50205;SDS011;36098;48.390;10.856;2024-03-06T02:03:22;1.80;;;1.23;;
50205;SDS011;36098;48.390;10.856;2024-03-06T02:05:49;3.75;;;1.58;;
50205;SDS011;36098;48.390;10.856;2024-03-06T02:08:15;2.22;;;1.42;;
50205;SDS011;36098;48.390;10.856;2024-03-06T02:10:41;1.95;;;1.13;;
50205;SDS011;36098;48.390;10.856;2024-03-06T02:13:06;2.90;;;1.63;;
50205;SDS011;36098;48.390;10.856;2024-03-06T02:15:31;2.05;;;1.40;;
50205;SDS011;36098;48.390;10.856;2024-03-06T02:17:57;2.70;;;1.30;;
50205;SDS011;36098;48.390;10.856;2024-03-06T02:20:23;2.45;;;1.23;;
50205;SDS011;36098;48.390;10.856;2024-03-06T02:22:49;3.00;;;1.27;;
50205;SDS011;36098;48.390;10.856;2024-03-06T02:25:15;3.15;;;1.35;;
50205;SDS011;36098;48.390;10.856;2024-03-06T02:27:40;2.50;;;1.30;;
50205;SDS011;36098;48.390;10.856;2024-03-06T02:30:06;2.33;;;1.40;;
50205;SDS011;36098;48.390;10.856;2024-03-06T02:32:32;1.50;;;1.23;;
50205;SDS011;36098;48.390;10.856;2024-03-06T02:34:57;2.83;;;1.23;;
50205;SDS011;36098;48.390;10.856;2024-03-06T02:37:23;1.52;;;1.20;;
50205;SDS011;36098;48.390;10.856;2024-03-06T02:39:49;2.78;;;1.38;;
50205;SDS011;36098;48.390;10.856;2024-03-06T02:42:14;2.78;;;1.52;;
50205;SDS011;36098;48.390;10.856;2024-03-06T02:44:40;1.83;;;1.33;;
50205;SDS011;36098;48.390;10.856;2024-03-06T02:47:05;3.08;;;1.83;;
50205;SDS011;36098;48.390;10.856;2024-03-06T02:49:30;2.55;;;1.02;;
50205;SDS011;36098;48.390;10.856;2024-03-06T02:51:55;2.38;;;1.10;;
50205;SDS011;36098;48.390;10.856;2024-03-06T02:54:21;3.30;;;1.55;;
50205;SDS011;36098;48.390;10.856;2024-03-06T02:56:46;1.77;;;1.30;;
50205;SDS011;36098;48.390;10.856;2024-03-06T02:59:12;2.35;;;1.60;;
50205;SDS011;36098;48.390;10.856;2024-03-06T03:01:38;2.38;;;1.30;;
50205;SDS011;36098;48.390;10.856;2024-03-06T03:04:04;2.03;;;1.10;;
50205;SDS011;36098;48.390;10.856;2024-03-06T03:06:29;1.83;;;1.20;;
50205;SDS011;36098;48.390;10.856;2024-03-06T03:08:54;2.83;;;1.30;;
50205;SDS011;36098;48.390;10.856;2024-03-06T03:11:21;2.00;;;1.35;;
50205;SDS011;36098;48.390;10.856;2024-03-06T03:13:46;1.80;;;1.20;;
50205;SDS011;36098;48.390;10.856;2024-03-06T03:16:15;4.28;;;1.40;;
50205;SDS011;36098;48.390;10.856;2024-03-06T03:18:45;2.35;;;1.17;;
50205;SDS011;36098;48.390;10.856;2024-03-06T03:21:10;3.05;;;1.20;;
50205;SDS011;36098;48.390;10.856;2024-03-06T03:23:37;2.78;;;1.20;;
50205;SDS011;36098;48.390;10.856;2024-03-06T03:26:02;1.80;;;1.38;;
50205;SDS011;36098;48.390;10.856;2024-03-06T03:28:29;1.58;;;1.20;;
50205;SDS011;36098;48.390;10.856;2024-03-06T03:30:55;1.85;;;1.30;;
50205;SDS011;36098;48.390;10.856;2024-03-06T03:33:21;2.38;;;1.20;;
50205;SDS011;36098;48.390;10.856;2024-03-06T03:35:46;2.45;;;2.08;;
50205;SDS011;36098;48.390;10.856;2024-03-06T03:38:12;1.67;;;1.10;;
50205;SDS011;36098;48.390;10.856;2024-03-06T03:40:37;2.55;;;1.40;;
50205;SDS011;36098;48.390;10.856;2024-03-06T03:43:02;2.17;;;1.05;;
50205;SDS011;36098;48.390;10.856;2024-03-06T03:45:31;2.70;;;1.30;;
50205;SDS011;36098;48.390;10.856;2024-03-06T03:48:03;1.95;;;1.30;;
50205;SDS011;36098;48.390;10.856;2024-03-06T03:50:31;3.30;;;1.20;;
50205;SDS011;36098;48.390;10.856;2024-03-06T03:52:57;2.17;;;1.08;;
50205;SDS011;36098;48.390;10.856;2024-03-06T03:55:29;1.63;;;1.20;;
50205;SDS011;36098;48.390;10.856;2024-03-06T03:57:54;2.15;;;1.20;;
50205;SDS011;36098;48.390;10.856;2024-03-06T04:00:19;1.55;;;1.10;;
50205;SDS011;36098;48.390;10.856;2024-03-06T04:02:45;1.98;;;1.17;;
50205;SDS011;36098;48.390;10.856;2024-03-06T04:05:10;2.05;;;1.10;;
50205;SDS011;36098;48.390;10.856;2024-03-06T04:07:36;1.83;;;1.08;;
50205;SDS011;36098;48.390;10.856;2024-03-06T04:10:02;1.20;;;1.10;;
50205;SDS011;36098;48.390;10.856;2024-03-06T04:12:27;1.67;;;1.20;;
50205;SDS011;36098;48.390;10.856;2024-03-06T04:14:53;1.52;;;1.17;;
50205;SDS011;36098;48.390;10.856;2024-03-06T04:17:18;2.00;;;1.20;;
50205;SDS011;36098;48.390;10.856;2024-03-06T04:19:43;1.35;;;1.00;;
50205;SDS011;36098;48.390;10.856;2024-03-06T04:22:10;2.00;;;1.08;;
50205;SDS011;36098;48.390;10.856;2024-03-06T04:24:35;1.40;;;1.20;;
50205;SDS011;36098;48.390;10.856;2024-03-06T04:27:00;2.30;;;1.10;;
50205;SDS011;36098;48.390;10.856;2024-03-06T04:29:25;1.70;;;1.02;;
50205;SDS011;36098;48.390;10.856;2024-03-06T04:31:51;2.03;;;1.00;;
50205;SDS011;36098;48.390;10.856;2024-03-06T04:34:16;1.38;;;1.02;;
50205;SDS011;36098;48.390;10.856;2024-03-06T04:36:41;1.70;;;1.00;;
50205;SDS011;36098;48.390;10.856;2024-03-06T04:39:06;1.35;;;1.05;;
50205;SDS011;36098;48.390;10.856;2024-03-06T04:41:32;1.95;;;0.98;;
50205;SDS011;36098;48.390;10.856;2024-03-06T04:43:58;4.85;;;1.45;;
50205;SDS011;36098;48.390;10.856;2024-03-06T04:46:25;3.00;;;1.20;;
50205;SDS011;36098;48.390;10.856;2024-03-06T04:48:51;1.58;;;1.00;;
50205;SDS011;36098;48.390;10.856;2024-03-06T04:51:16;2.50;;;1.17;;
50205;SDS011;36098;48.390;10.856;2024-03-06T04:53:44;2.30;;;1.17;;
50205;SDS011;36098;48.390;10.856;2024-03-06T04:56:10;2.13;;;1.10;;
50205;SDS011;36098;48.390;10.856;2024-03-06T04:58:35;1.85;;;1.13;;
50205;SDS011;36098;48.390;10.856;2024-03-06T05:01:00;2.88;;;1.25;;
50205;SDS011;36098;48.390;10.856;2024-03-06T05:03:26;2.28;;;1.20;;
50205;SDS011;36098;48.390;10.856;2024-03-06T05:05:51;2.35;;;1.23;;
50205;SDS011;36098;48.390;10.856;2024-03-06T05:08:16;3.00;;;1.38;;
50205;SDS011;36098;48.390;10.856;2024-03-06T05:10:41;2.15;;;1.20;;
50205;SDS011;36098;48.390;10.856;2024-03-06T05:13:07;4.45;;;1.50;;
50205;SDS011;36098;48.390;10.856;2024-03-06T05:15:32;2.90;;;1.50;;
50205;SDS011;36098;48.390;10.856;2024-03-06T05:17:57;5.45;;;1.30;;
50205;SDS011;36098;48.390;10.856;2024-03-06T05:20:23;1.80;;;1.30;;
50205;SDS011;36098;48.390;10.856;2024-03-06T05:22:48;2.70;;;1.25;;
50205;SDS011;36098;48.390;10.856;2024-03-06T05:25:14;2.75;;;1.20;;
50205;SDS011;36098;48.390;10.856;2024-03-06T05:27:39;3.55;;;1.30;;
50205;SDS011;36098;48.390;10.856;2024-03-06T05:30:04;1.65;;;1.02;;
50205;SDS011;36098;48.390;10.856;2024-03-06T05:32:30;3.75;;;1.20;;
50205;SDS011;36098;48.390;10.856;2024-03-06T05:34:56;2.10;;;1.20;;
50205;SDS011;36098;48.390;10.856;2024-03-06T05:37:23;1.67;;;1.33;;
50205;SDS011;36098;48.390;10.856;2024-03-06T05:39:48;1.90;;;1.20;;
50205;SDS011;36098;48.390;10.856;2024-03-06T05:42:13;1.60;;;1.25;;
50205;SDS011;36098;48.390;10.856;2024-03-06T05:44:38;2.20;;;1.40;;
50205;SDS011;36098;48.390;10.856;2024-03-06T05:47:04;3.65;;;1.45;;
50205;SDS011;36098;48.390;10.856;2024-03-06T05:49:31;6.80;;;1.40;;
50205;SDS011;36098;48.390;10.856;2024-03-06T05:51:57;7.55;;;1.02;;
50205;SDS011;36098;48.390;10.856;2024-03-06T05:54:23;3.97;;;1.55;;
50205;SDS011;36098;48.390;10.856;2024-03-06T05:56:49;3.28;;;1.35;;
50205;SDS011;36098;48.390;10.856;2024-03-06T05:59:15;2.13;;;1.30;;
50205;SDS011;36098;48.390;10.856;2024-03-06T06:01:40;1.63;;;1.20;;
50205;SDS011;36098;48.390;10.856;2024-03-06T06:04:07;3.47;;;1.30;;
50205;SDS011;36098;48.390;10.856;2024-03-06T06:06:34;1.95;;;1.30;;
50205;SDS011;36098;48.390;10.856;2024-03-06T06:08:59;3.22;;;1.10;;
50205;SDS011;36098;48.390;10.856;2024-03-06T06:11:25;1.98;;;1.58;;
50205;SDS011;36098;48.390;10.856;2024-03-06T06:13:51;3.10;;;1.40;;
50205;SDS011;36098;48.390;10.856;2024-03-06T06:16:17;1.80;;;1.10;;
50205;SDS011;36098;48.390;10.856;2024-03-06T06:18:42;3.00;;;1.20;;
50205;SDS011;36098;48.390;10.856;2024-03-06T06:21:08;2.33;;;1.20;;
50205;SDS011;36098;48.390;10.856;2024-03-06T06:23:34;2.58;;;1.27;;
50205;SDS011;36098;48.390;10.856;2024-03-06T06:25:59;2.38;;;1.40;;
50205;SDS011;36098;48.390;10.856;2024-03-06T06:28:25;4.57;;;1.30;;
50205;SDS011;36098;48.390;10.856;2024-03-06T06:30:50;1.73;;;1.10;;
50205;SDS011;36098;48.390;10.856;2024-03-06T06:33:17;2.40;;;1.00;;
50205;SDS011;36098;48.390;10.856;2024-03-06T06:35:46;1.42;;;1.17;;
50205;SDS011;36098;48.390;10.856;2024-03-06T06:38:12;2.22;;;1.23;;
50205;SDS011;36098;48.390;10.856;2024-03-06T06:40:37;2.03;;;1.05;;
50205;SDS011;36098;48.390;10.856;2024-03-06T06:43:03;2.05;;;1.30;;
50205;SDS011;36098;48.390;10.856;2024-03-06T06:45:28;3.08;;;1.27;;
50205;SDS011;36098;48.390;10.856;2024-03-06T06:47:53;1.38;;;1.15;;
50205;SDS011;36098;48.390;10.856;2024-03-06T06:50:19;2.25;;;1.35;;
50205;SDS011;36098;48.390;10.856;2024-03-06T06:52:47;1.70;;;1.25;;
50205;SDS011;36098;48.390;10.856;2024-03-06T06:55:13;2.30;;;1.20;;
50205;SDS011;36098;48.390;10.856;2024-03-06T06:57:38;3.05;;;1.50;;
50205;SDS011;36098;48.390;10.856;2024-03-06T07:00:04;2.85;;;1.30;;
50205;SDS011;36098;48.390;10.856;2024-03-06T07:02:36;4.15;;;1.50;;
50205;SDS011;36098;48.390;10.856;2024-03-06T07:05:03;2.17;;;1.30;;
50205;SDS011;36098;48.390;10.856;2024-03-06T07:07:29;2.10;;;1.30;;
50205;SDS011;36098;48.390;10.856;2024-03-06T07:09:58;2.08;;;1.40;;
50205;SDS011;36098;48.390;10.856;2024-03-06T07:12:23;5.20;;;1.50;;
50205;SDS011;36098;48.390;10.856;2024-03-06T07:14:49;3.63;;;1.60;;
50205;SDS011;36098;48.390;10.856;2024-03-06T07:17:14;2.85;;;1.30;;
50205;SDS011;36098;48.390;10.856;2024-03-06T07:19:39;2.20;;;1.33;;
50205;SDS011;36098;48.390;10.856;2024-03-06T07:22:05;2.58;;;1.30;;
50205;SDS011;36098;48.390;10.856;2024-03-06T07:24:30;2.90;;;1.42;;
50205;SDS011;36098;48.390;10.856;2024-03-06T07:26:56;3.58;;;1.65;;
50205;SDS011;36098;48.390;10.856;2024-03-06T07:29:21;3.25;;;1.67;;
50205;SDS011;36098;48.390;10.856;2024-03-06T07:31:46;2.72;;;1.30;;
50205;SDS011;36098;48.390;10.856;2024-03-06T07:34:12;1.88;;;1.20;;
50205;SDS011;36098;48.390;10.856;2024-03-06T07:36:38;2.80;;;1.50;;
50205;SDS011;36098;48.390;10.856;2024-03-06T07:39:03;3.03;;;1.50;;
50205;SDS011;36098;48.390;10.856;2024-03-06T07:41:29;2.70;;;1.60;;
50205;SDS011;36098;48.390;10.856;2024-03-06T07:43:55;1.83;;;1.30;;
50205;SDS011;36098;48.390;10.856;2024-03-06T07:46:20;2.42;;;1.55;;
50205;SDS011;36098;48.390;10.856;2024-03-06T07:48:45;2.92;;;1.65;;
50205;SDS011;36098;48.390;10.856;2024-03-06T07:51:11;2.47;;;1.25;;
50205;SDS011;36098;48.390;10.856;2024-03-06T07:53:36;1.60;;;1.25;;
50205;SDS011;36098;48.390;10.856;2024-03-06T07:56:02;1.65;;;1.33;;
50205;SDS011;36098;48.390;10.856;2024-03-06T07:58:28;1.95;;;1.70;;
50205;SDS011;36098;48.390;10.856;2024-03-06T08:00:53;1.50;;;1.10;;
50205;SDS011;36098;48.390;10.856;2024-03-06T08:03:20;2.03;;;1.65;;
50205;SDS011;36098;48.390;10.856;2024-03-06T08:05:47;1.88;;;1.30;;
50205;SDS011;36098;48.390;10.856;2024-03-06T08:08:16;2.10;;;1.60;;
50205;SDS011;36098;48.390;10.856;2024-03-06T08:10:41;1.83;;;1.20;;
50205;SDS011;36098;48.390;10.856;2024-03-06T08:13:06;2.50;;;1.40;;
50205;SDS011;36098;48.390;10.856;2024-03-06T08:15:31;2.97;;;1.50;;
50205;SDS011;36098;48.390;10.856;2024-03-06T08:17:57;1.75;;;1.40;;
50205;SDS011;36098;48.390;10.856;2024-03-06T08:20:22;2.10;;;1.30;;
50205;SDS011;36098;48.390;10.856;2024-03-06T08:22:48;4.63;;;1.45;;
50205;SDS011;36098;48.390;10.856;2024-03-06T08:25:14;1.48;;;1.30;;
50205;SDS011;36098;48.390;10.856;2024-03-06T08:27:40;2.35;;;1.30;;
50205;SDS011;36098;48.390;10.856;2024-03-06T08:30:06;2.03;;;1.48;;
50205;SDS011;36098;48.390;10.856;2024-03-06T08:32:33;4.20;;;2.08;;
50205;SDS011;36098;48.390;10.856;2024-03-06T08:35:03;1.98;;;1.33;;
50205;SDS011;36098;48.390;10.856;2024-03-06T08:37:38;1.90;;;1.35;;
50205;SDS011;36098;48.390;10.856;2024-03-06T08:40:05;3.40;;;1.40;;
50205;SDS011;36098;48.390;10.856;2024-03-06T08:42:32;2.03;;;1.40;;
50205;SDS011;36098;48.390;10.856;2024-03-06T08:44:58;2.10;;;1.40;;
50205;SDS011;36098;48.390;10.856;2024-03-06T08:47:23;1.90;;;1.42;;
50205;SDS011;36098;48.390;10.856;2024-03-06T08:49:49;2.00;;;1.40;;
50205;SDS011;36098;48.390;10.856;2024-03-06T08:52:14;1.95;;;1.40;;
50205;SDS011;36098;48.390;10.856;2024-03-06T08:54:40;1.98;;;1.42;;
50205;SDS011;36098;48.390;10.856;2024-03-06T08:57:06;2.17;;;1.58;;
50205;SDS011;36098;48.390;10.856;2024-03-06T08:59:33;2.22;;;1.50;;
50205;SDS011;36098;48.390;10.856;2024-03-06T09:02:11;1.95;;;1.42;;
50205;SDS011;36098;48.390;10.856;2024-03-06T09:04:44;3.42;;;1.48;;
50205;SDS011;36098;48.390;10.856;2024-03-06T09:07:10;1.70;;;1.23;;
50205;SDS011;36098;48.390;10.856;2024-03-06T09:09:36;2.83;;;1.83;;
50205;SDS011;36098;48.390;10.856;2024-03-06T09:12:03;2.20;;;1.60;;
50205;SDS011;36098;48.390;10.856;2024-03-06T09:14:34;2.08;;;1.52;;
50205;SDS011;36098;48.390;10.856;2024-03-06T09:17:00;2.58;;;1.48;;
50205;SDS011;36098;48.390;10.856;2024-03-06T09:19:25;2.15;;;1.25;;
50205;SDS011;36098;48.390;10.856;2024-03-06T09:21:51;1.75;;;1.20;;
50205;SDS011;36098;48.390;10.856;2024-03-06T09:24:16;2.83;;;1.30;;
50205;SDS011;36098;48.390;10.856;2024-03-06T09:26:43;2.25;;;1.40;;
50205;SDS011;36098;48.390;10.856;2024-03-06T09:29:08;1.90;;;1.27;;
50205;SDS011;36098;48.390;10.856;2024-03-06T09:31:34;4.85;;;1.42;;
50205;SDS011;36098;48.390;10.856;2024-03-06T09:33:59;2.15;;;1.42;;
50205;SDS011;36098;48.390;10.856;2024-03-06T09:36:24;1.95;;;1.35;;
50205;SDS011;36098;48.390;10.856;2024-03-06T09:38:50;2.22;;;1.40;;
50205;SDS011;36098;48.390;10.856;2024-03-06T09:41:17;1.60;;;1.45;;
50205;SDS011;36098;48.390;10.856;2024-03-06T09:43:43;2.38;;;1.45;;
50205;SDS011;36098;48.390;10.856;2024-03-06T09:46:09;2.42;;;1.48;;
50205;SDS011;36098;48.390;10.856;2024-03-06T09:48:35;2.90;;;1.40;;
50205;SDS011;36098;48.390;10.856;2024-03-06T09:51:01;2.92;;;1.60;;
50205;SDS011;36098;48.390;10.856;2024-03-06T09:53:27;2.20;;;1.38;;
50205;SDS011;36098;48.390;10.856;2024-03-06T09:55:54;2.83;;;1.42;;
50205;SDS011;36098;48.390;10.856;2024-03-06T09:58:21;1.50;;;1.27;;
50205;SDS011;36098;48.390;10.856;2024-03-06T10:00:47;1.95;;;1.20;;
50205;SDS011;36098;48.390;10.856;2024-03-06T10:03:13;1.60;;;1.50;;
50205;SDS011;36098;48.390;10.856;2024-03-06T10:05:38;5.18;;;1.45;;
50205;SDS011;36098;48.390;10.856;2024-03-06T10:08:04;2.13;;;1.42;;
50205;SDS011;36098;48.390;10.856;2024-03-06T10:10:29;2.53;;;1.48;;
50205;SDS011;36098;48.390;10.856;2024-03-06T10:12:55;1.95;;;1.40;;
50205;SDS011;36098;48.390;10.856;2024-03-06T10:15:25;1.60;;;1.30;;
50205;SDS011;36098;48.390;10.856;2024-03-06T10:18:09;1.85;;;1.40;;
50205;SDS011;36098;48.390;10.856;2024-03-06T10:20:35;2.08;;;1.45;;
50205;SDS011;36098;48.390;10.856;2024-03-06T10:23:00;1.80;;;1.40;;
50205;SDS011;36098;48.390;10.856;2024-03-06T10:25:26;2.65;;;1.70;;
50205;SDS011;36098;48.390;10.856;2024-03-06T10:28:06;2.35;;;1.30;;
50205;SDS011;36098;48.390;10.856;2024-03-06T10:30:35;2.08;;;1.42;;
50205;SDS011;36098;48.390;10.856;2024-03-06T10:33:02;2.20;;;1.60;;
50205;SDS011;36098;48.390;10.856;2024-03-06T10:35:31;4.50;;;1.50;;
50205;SDS011;36098;48.390;10.856;2024-03-06T10:37:59;2.00;;;1.38;;
50205;SDS011;36098;48.390;10.856;2024-03-06T10:40:26;2.05;;;1.30;;
50205;SDS011;36098;48.390;10.856;2024-03-06T10:42:54;2.53;;;1.60;;
50205;SDS011;36098;48.390;10.856;2024-03-06T10:45:20;2.20;;;1.60;;
50205;SDS011;36098;48.390;10.856;2024-03-06T10:47:54;2.97;;;1.60;;
50205;SDS011;36098;48.390;10.856;2024-03-06T10:50:20;2.25;;;1.50;;
50205;SDS011;36098;48.390;10.856;2024-03-06T10:52:46;2.03;;;1.50;;
50205;SDS011;36098;48.390;10.856;2024-03-06T10:55:13;3.05;;;1.48;;
50205;SDS011;36098;48.390;10.856;2024-03-06T10:57:40;1.83;;;1.35;;
50205;SDS011;36098;48.390;10.856;2024-03-06T11:00:07;2.47;;;1.60;;
50205;SDS011;36098;48.390;10.856;2024-03-06T11:02:33;2.42;;;1.38;;
50205;SDS011;36098;48.390;10.856;2024-03-06T11:05:00;1.90;;;1.35;;
50205;SDS011;36098;48.390;10.856;2024-03-06T11:07:30;2.55;;;1.50;;
50205;SDS011;36098;48.390;10.856;2024-03-06T11:09:57;2.42;;;1.70;;
50205;SDS011;36098;48.390;10.856;2024-03-06T11:12:36;2.35;;;1.70;;
50205;SDS011;36098;48.390;10.856;2024-03-06T11:15:10;3.20;;;1.58;;
50205;SDS011;36098;48.390;10.856;2024-03-06T11:17:36;1.92;;;1.40;;
50205;SDS011;36098;48.390;10.856;2024-03-06T11:28:57;1.90;;;1.42;;
50205;SDS011;36098;48.390;10.856;2024-03-06T11:31:06;2.60;;;1.63;;
50205;SDS011;36098;48.390;10.856;2024-03-06T11:38:43;3.33;;;1.50;;
50205;SDS011;36098;48.390;10.856;2024-03-06T11:41:11;1.92;;;1.30;;
50205;SDS011;36098;48.390;10.856;2024-03-06T11:43:46;2.25;;;1.60;;
50205;SDS011;36098;48.390;10.856;2024-03-06T11:46:15;2.78;;;1.83;;
50205;SDS011;36098;48.390;10.856;2024-03-06T11:48:42;2.67;;;1.80;;
50205;SDS011;36098;48.390;10.856;2024-03-06T11:51:08;2.90;;;1.40;;
50205;SDS011;36098;48.390;10.856;2024-03-06T11:53:34;2.42;;;1.80;;
50205;SDS011;36098;48.390;10.856;2024-03-06T11:56:00;2.22;;;1.73;;
50205;SDS011;36098;48.390;10.856;2024-03-06T11:58:25;2.53;;;1.63;;
50205;SDS011;36098;48.390;10.856;2024-03-06T12:00:51;2.10;;;1.50;;
50205;SDS011;36098;48.390;10.856;2024-03-06T12:03:18;3.17;;;1.70;;
50205;SDS011;36098;48.390;10.856;2024-03-06T12:05:44;2.13;;;1.60;;
50205;SDS011;36098;48.390;10.856;2024-03-06T12:08:11;2.42;;;1.80;;
50205;SDS011;36098;48.390;10.856;2024-03-06T12:10:37;2.45;;;1.80;;
50205;SDS011;36098;48.390;10.856;2024-03-06T12:13:03;2.47;;;1.77;;
50205;SDS011;36098;48.390;10.856;2024-03-06T12:15:28;2.72;;;1.60;;
50205;SDS011;36098;48.390;10.856;2024-03-06T12:17:54;3.10;;;1.73;;
50205;SDS011;36098;48.390;10.856;2024-03-06T12:20:19;3.13;;;1.80;;
50205;SDS011;36098;48.390;10.856;2024-03-06T12:22:48;2.70;;;1.73;;
50205;SDS011;36098;48.390;10.856;2024-03-06T12:25:18;2.40;;;1.80;;
50205;SDS011;36098;48.390;10.856;2024-03-06T12:27:48;3.35;;;1.95;;
50205;SDS011;36098;48.390;10.856;2024-03-06T12:30:17;1.70;;;1.48;;
50205;SDS011;36098;48.390;10.856;2024-03-06T12:32:44;2.38;;;1.65;;
50205;SDS011;36098;48.390;10.856;2024-03-06T12:35:10;2.58;;;1.95;;
50205;SDS011;36098;48.390;10.856;2024-03-06T12:37:35;3.97;;;1.80;;
50205;SDS011;36098;48.390;10.856;2024-03-06T12:40:01;2.67;;;2.00;;
50205;SDS011;36098;48.390;10.856;2024-03-06T12:42:29;2.63;;;1.60;;
50205;SDS011;36098;48.390;10.856;2024-03-06T12:44:55;2.67;;;1.80;;
50205;SDS011;36098;48.390;10.856;2024-03-06T12:47:20;2.63;;;1.90;;
50205;SDS011;36098;48.390;10.856;2024-03-06T12:49:45;3.38;;;2.08;;
50205;SDS011;36098;48.390;10.856;2024-03-06T12:52:10;2.78;;;1.95;;
50205;SDS011;36098;48.390;10.856;2024-03-06T12:54:36;3.20;;;1.80;;
50205;SDS011;36098;48.390;10.856;2024-03-06T12:57:01;3.47;;;2.00;;
50205;SDS011;36098;48.390;10.856;2024-03-06T12:59:27;2.00;;;1.70;;
50205;SDS011;36098;48.390;10.856;2024-03-06T13:01:53;3.65;;;1.70;;
50205;SDS011;36098;48.390;10.856;2024-03-06T13:04:19;3.25;;;1.80;;
50205;SDS011;36098;48.390;10.856;2024-03-06T13:06:44;3.22;;;2.10;;
50205;SDS011;36098;48.390;10.856;2024-03-06T13:09:10;4.95;;;1.75;;
50205;SDS011;36098;48.390;10.856;2024-03-06T13:11:36;3.40;;;1.92;;
50205;SDS011;36098;48.390;10.856;2024-03-06T13:14:01;3.40;;;1.90;;
50205;SDS011;36098;48.390;10.856;2024-03-06T13:16:26;2.47;;;1.90;;
50205;SDS011;36098;48.390;10.856;2024-03-06T13:18:52;2.72;;;1.75;;
50205;SDS011;36098;48.390;10.856;2024-03-06T13:21:20;2.53;;;1.77;;
50205;SDS011;36098;48.390;10.856;2024-03-06T13:23:45;4.10;;;2.20;;
50205;SDS011;36098;48.390;10.856;2024-03-06T13:26:10;2.47;;;1.90;;
50205;SDS011;36098;48.390;10.856;2024-03-06T13:28:37;2.65;;;1.70;;
50205;SDS011;36098;48.390;10.856;2024-03-06T13:31:03;3.05;;;2.05;;
50205;SDS011;36098;48.390;10.856;2024-03-06T13:33:31;2.28;;;1.70;;
50205;SDS011;36098;48.390;10.856;2024-03-06T13:35:56;2.50;;;1.80;;
50205;SDS011;36098;48.390;10.856;2024-03-06T13:38:23;2.28;;;1.77;;
50205;SDS011;36098;48.390;10.856;2024-03-06T13:40:48;3.22;;;1.92;;
50205;SDS011;36098;48.390;10.856;2024-03-06T13:43:13;2.60;;;2.00;;
50205;SDS011;36098;48.390;10.856;2024-03-06T13:45:40;2.75;;;2.10;;
50205;SDS011;36098;48.390;10.856;2024-03-06T13:48:16;2.63;;;1.75;;
50205;SDS011;36098;48.390;10.856;2024-03-06T13:50:44;3.10;;;2.08;;
50205;SDS011;36098;48.390;10.856;2024-03-06T13:53:11;5.75;;;2.10;;
50205;SDS011;36098;48.390;10.856;2024-03-06T13:55:36;2.85;;;2.20;;
50205;SDS011;36098;48.390;10.856;2024-03-06T13:58:02;3.22;;;2.30;;
50205;SDS011;36098;48.390;10.856;2024-03-06T14:00:28;2.88;;;2.00;;
50205;SDS011;36098;48.390;10.856;2024-03-06T14:02:53;3.13;;;2.08;;
50205;SDS011;36098;48.390;10.856;2024-03-06T14:05:19;2.80;;;2.00;;
50205;SDS011;36098;48.390;10.856;2024-03-06T14:07:49;3.00;;;2.10;;
50205;SDS011;36098;48.390;10.856;2024-03-06T14:10:17;2.38;;;2.05;;
50205;SDS011;36098;48.390;10.856;2024-03-06T14:12:47;2.75;;;2.08;;
50205;SDS011;36098;48.390;10.856;2024-03-06T14:15:16;3.55;;;2.20;;
50205;SDS011;36098;48.390;10.856;2024-03-06T14:17:43;9.65;;;2.50;;
50205;SDS011;36098;48.390;10.856;2024-03-06T14:20:09;3.15;;;2.13;;
50205;SDS011;36098;48.390;10.856;2024-03-06T14:22:37;3.50;;;2.53;;
50205;SDS011;36098;48.390;10.856;2024-03-06T14:25:04;3.20;;;2.30;;
50205;SDS011;36098;48.390;10.856;2024-03-06T14:27:29;3.50;;;1.88;;
50205;SDS011;36098;48.390;10.856;2024-03-06T14:29:55;3.65;;;2.20;;
50205;SDS011;36098;48.390;10.856;2024-03-06T14:32:20;3.10;;;2.10;;
50205;SDS011;36098;48.390;10.856;2024-03-06T14:34:46;3.55;;;2.40;;
50205;SDS011;36098;48.390;10.856;2024-03-06T14:37:12;3.65;;;2.10;;
50205;SDS011;36098;48.390;10.856;2024-03-06T14:39:37;3.40;;;2.10;;
50205;SDS011;36098;48.390;10.856;2024-03-06T14:42:03;4.20;;;2.00;;